sensor_id;sensor_type;location;lat;lon;timestamp;temperature;humidity
78733;DHT22;68056;52.530;5.454;2023-03-13T00:01:19;9.20;73.50
78733;DHT22;68056;52.530;5.454;2023-03-13T00:03:45;9.20;73.50
78733;DHT22;68056;52.530;5.454;2023-03-13T00:06:11;9.20;73.50
78733;DHT22;68056;52.530;5.454;2023-03-13T00:08:37;9.20;73.50
78733;DHT22;68056;52.530;5.454;2023-03-13T00:11:05;9.20;73.50
78733;DHT22;68056;52.530;5.454;2023-03-13T00:13:31;9.20;73.50
78733;DHT22;68056;52.530;5.454;2023-03-13T00:16:08;9.20;73.60
78733;DHT22;68056;52.530;5.454;2023-03-13T00:18:34;9.20;73.60
78733;DHT22;68056;52.530;5.454;2023-03-13T00:21:01;9.20;73.70
78733;DHT22;68056;52.530;5.454;2023-03-13T00:23:27;9.20;73.70
78733;DHT22;68056;52.530;5.454;2023-03-13T00:26:04;9.20;73.80
78733;DHT22;68056;52.530;5.454;2023-03-13T00:28:31;9.20;73.80
78733;DHT22;68056;52.530;5.454;2023-03-13T00:31:08;9.20;73.90
78733;DHT22;68056;52.530;5.454;2023-03-13T00:33:36;9.20;74.00
78733;DHT22;68056;52.530;5.454;2023-03-13T00:36:04;9.20;73.90
78733;DHT22;68056;52.530;5.454;2023-03-13T00:38:30;9.20;73.90
78733;DHT22;68056;52.530;5.454;2023-03-13T00:41:00;9.20;74.00
78733;DHT22;68056;52.530;5.454;2023-03-13T00:43:26;9.20;74.00
78733;DHT22;68056;52.530;5.454;2023-03-13T00:45:52;9.20;74.00
78733;DHT22;68056;52.530;5.454;2023-03-13T00:48:18;9.20;74.10
78733;DHT22;68056;52.530;5.454;2023-03-13T00:50:43;9.20;74.10
78733;DHT22;68056;52.530;5.454;2023-03-13T00:53:09;9.20;74.10
78733;DHT22;68056;52.530;5.454;2023-03-13T00:55:34;9.20;74.20
78733;DHT22;68056;52.530;5.454;2023-03-13T00:58:00;9.20;74.30
78733;DHT22;68056;52.530;5.454;2023-03-13T01:00:25;9.20;74.40
78733;DHT22;68056;52.530;5.454;2023-03-13T01:02:51;9.20;74.40
78733;DHT22;68056;52.530;5.454;2023-03-13T01:05:16;9.20;74.50
78733;DHT22;68056;52.530;5.454;2023-03-13T01:07:42;9.20;74.50
78733;DHT22;68056;52.530;5.454;2023-03-13T01:10:08;9.30;74.60
78733;DHT22;68056;52.530;5.454;2023-03-13T01:12:34;9.20;74.80
78733;DHT22;68056;52.530;5.454;2023-03-13T01:14:59;9.20;74.80
78733;DHT22;68056;52.530;5.454;2023-03-13T01:17:25;9.20;74.90
78733;DHT22;68056;52.530;5.454;2023-03-13T01:19:50;9.20;75.10
78733;DHT22;68056;52.530;5.454;2023-03-13T01:22:19;9.20;75.20
78733;DHT22;68056;52.530;5.454;2023-03-13T01:24:44;9.20;75.30
78733;DHT22;68056;52.530;5.454;2023-03-13T01:27:10;9.20;75.30
78733;DHT22;68056;52.530;5.454;2023-03-13T01:29:36;9.20;75.40
78733;DHT22;68056;52.530;5.454;2023-03-13T01:32:01;9.20;75.50
78733;DHT22;68056;52.530;5.454;2023-03-13T01:34:27;9.20;75.50
78733;DHT22;68056;52.530;5.454;2023-03-13T01:36:52;9.20;75.60
78733;DHT22;68056;52.530;5.454;2023-03-13T01:39:18;9.20;75.70
78733;DHT22;68056;52.530;5.454;2023-03-13T01:41:44;9.20;75.70
78733;DHT22;68056;52.530;5.454;2023-03-13T01:44:23;9.20;75.70
78733;DHT22;68056;52.530;5.454;2023-03-13T01:46:49;9.20;75.80
78733;DHT22;68056;52.530;5.454;2023-03-13T01:54:23;9.40;76.00
78733;DHT22;68056;52.530;5.454;2023-03-13T01:59:50;9.40;76.10
78733;DHT22;68056;52.530;5.454;2023-03-13T02:02:17;9.40;76.10
78733;DHT22;68056;52.530;5.454;2023-03-13T02:04:48;9.40;76.30
78733;DHT22;68056;52.530;5.454;2023-03-13T02:07:24;9.40;76.20
78733;DHT22;68056;52.530;5.454;2023-03-13T02:09:52;9.40;76.30
78733;DHT22;68056;52.530;5.454;2023-03-13T02:12:36;9.50;76.50
78733;DHT22;68056;52.530;5.454;2023-03-13T02:15:22;9.50;76.50
78733;DHT22;68056;52.530;5.454;2023-03-13T02:17:49;9.50;76.50
78733;DHT22;68056;52.530;5.454;2023-03-13T02:20:18;9.50;76.50
78733;DHT22;68056;52.530;5.454;2023-03-13T02:23:05;9.50;76.50
78733;DHT22;68056;52.530;5.454;2023-03-13T02:25:50;9.60;76.50
78733;DHT22;68056;52.530;5.454;2023-03-13T02:28:20;9.60;76.60
78733;DHT22;68056;52.530;5.454;2023-03-13T02:30:48;9.60;76.60
78733;DHT22;68056;52.530;5.454;2023-03-13T02:33:15;9.60;76.70
78733;DHT22;68056;52.530;5.454;2023-03-13T02:35:42;9.60;76.80
78733;DHT22;68056;52.530;5.454;2023-03-13T02:38:12;9.70;76.80
78733;DHT22;68056;52.530;5.454;2023-03-13T02:40:41;9.70;76.90
78733;DHT22;68056;52.530;5.454;2023-03-13T02:43:13;9.70;76.90
78733;DHT22;68056;52.530;5.454;2023-03-13T02:45:40;9.70;76.90
78733;DHT22;68056;52.530;5.454;2023-03-13T02:48:05;9.80;77.00
78733;DHT22;68056;52.530;5.454;2023-03-13T02:50:32;9.80;77.00
78733;DHT22;68056;52.530;5.454;2023-03-13T02:53:01;9.80;77.00
78733;DHT22;68056;52.530;5.454;2023-03-13T02:55:34;9.90;77.00
78733;DHT22;68056;52.530;5.454;2023-03-13T02:58:01;10.00;77.00
78733;DHT22;68056;52.530;5.454;2023-03-13T03:00:26;10.00;77.10
78733;DHT22;68056;52.530;5.454;2023-03-13T03:02:53;10.00;77.10
78733;DHT22;68056;52.530;5.454;2023-03-13T03:05:19;10.00;77.10
78733;DHT22;68056;52.530;5.454;2023-03-13T03:07:44;10.10;77.20
78733;DHT22;68056;52.530;5.454;2023-03-13T03:10:10;10.10;77.20
78733;DHT22;68056;52.530;5.454;2023-03-13T03:12:36;10.20;77.30
78733;DHT22;68056;52.530;5.454;2023-03-13T03:15:02;10.20;77.30
78733;DHT22;68056;52.530;5.454;2023-03-13T03:17:29;10.20;77.40
78733;DHT22;68056;52.530;5.454;2023-03-13T03:19:55;10.20;77.50
78733;DHT22;68056;52.530;5.454;2023-03-13T03:22:21;10.30;77.50
78733;DHT22;68056;52.530;5.454;2023-03-13T03:24:46;10.30;77.50
78733;DHT22;68056;52.530;5.454;2023-03-13T03:27:12;10.30;77.60
78733;DHT22;68056;52.530;5.454;2023-03-13T03:29:38;10.40;77.70
78733;DHT22;68056;52.530;5.454;2023-03-13T03:32:03;10.50;77.70
78733;DHT22;68056;52.530;5.454;2023-03-13T03:34:29;10.50;77.80
78733;DHT22;68056;52.530;5.454;2023-03-13T03:36:54;10.60;77.90
78733;DHT22;68056;52.530;5.454;2023-03-13T03:39:20;10.60;77.90
78733;DHT22;68056;52.530;5.454;2023-03-13T03:41:46;10.70;77.90
78733;DHT22;68056;52.530;5.454;2023-03-13T03:44:11;10.80;77.90
78733;DHT22;68056;52.530;5.454;2023-03-13T03:46:37;10.80;77.90
78733;DHT22;68056;52.530;5.454;2023-03-13T03:49:02;10.90;77.80
78733;DHT22;68056;52.530;5.454;2023-03-13T03:51:28;10.90;77.70
78733;DHT22;68056;52.530;5.454;2023-03-13T03:53:53;11.00;77.60
78733;DHT22;68056;52.530;5.454;2023-03-13T03:56:19;11.00;77.60
78733;DHT22;68056;52.530;5.454;2023-03-13T03:58:45;11.10;77.60
78733;DHT22;68056;52.530;5.454;2023-03-13T04:01:10;11.10;77.50
78733;DHT22;68056;52.530;5.454;2023-03-13T04:03:36;11.10;77.50
78733;DHT22;68056;52.530;5.454;2023-03-13T04:06:02;11.10;77.50
78733;DHT22;68056;52.530;5.454;2023-03-13T04:08:27;11.10;77.40
78733;DHT22;68056;52.530;5.454;2023-03-13T04:10:53;11.20;77.30
78733;DHT22;68056;52.530;5.454;2023-03-13T04:13:18;11.20;77.40
78733;DHT22;68056;52.530;5.454;2023-03-13T04:15:44;11.20;77.40
78733;DHT22;68056;52.530;5.454;2023-03-13T04:18:10;11.20;77.30
78733;DHT22;68056;52.530;5.454;2023-03-13T04:20:35;11.20;77.30
78733;DHT22;68056;52.530;5.454;2023-03-13T04:23:01;11.20;77.30
78733;DHT22;68056;52.530;5.454;2023-03-13T04:25:27;11.20;77.40
78733;DHT22;68056;52.530;5.454;2023-03-13T04:27:52;11.20;77.50
78733;DHT22;68056;52.530;5.454;2023-03-13T04:30:18;11.30;77.50
78733;DHT22;68056;52.530;5.454;2023-03-13T04:32:43;11.30;77.50
78733;DHT22;68056;52.530;5.454;2023-03-13T04:35:10;11.30;77.50
78733;DHT22;68056;52.530;5.454;2023-03-13T04:37:36;11.30;77.50
78733;DHT22;68056;52.530;5.454;2023-03-13T04:40:01;11.30;77.50
78733;DHT22;68056;52.530;5.454;2023-03-13T04:42:27;11.30;77.50
78733;DHT22;68056;52.530;5.454;2023-03-13T04:44:53;11.30;77.50
78733;DHT22;68056;52.530;5.454;2023-03-13T04:47:18;11.30;77.50
78733;DHT22;68056;52.530;5.454;2023-03-13T04:49:44;11.30;77.40
78733;DHT22;68056;52.530;5.454;2023-03-13T04:52:10;11.40;77.50
78733;DHT22;68056;52.530;5.454;2023-03-13T04:54:35;11.30;77.40
78733;DHT22;68056;52.530;5.454;2023-03-13T04:57:01;11.30;77.40
78733;DHT22;68056;52.530;5.454;2023-03-13T04:59:27;11.40;77.40
78733;DHT22;68056;52.530;5.454;2023-03-13T05:01:52;11.30;77.40
78733;DHT22;68056;52.530;5.454;2023-03-13T05:04:18;11.30;77.40
78733;DHT22;68056;52.530;5.454;2023-03-13T05:06:43;11.30;77.40
78733;DHT22;68056;52.530;5.454;2023-03-13T05:09:09;11.30;77.40
78733;DHT22;68056;52.530;5.454;2023-03-13T05:11:35;11.30;77.50
78733;DHT22;68056;52.530;5.454;2023-03-13T05:14:00;11.40;77.50
78733;DHT22;68056;52.530;5.454;2023-03-13T05:16:26;11.40;77.40
78733;DHT22;68056;52.530;5.454;2023-03-13T05:18:51;11.40;77.40
78733;DHT22;68056;52.530;5.454;2023-03-13T05:21:17;11.40;77.30
78733;DHT22;68056;52.530;5.454;2023-03-13T05:23:43;11.50;77.40
78733;DHT22;68056;52.530;5.454;2023-03-13T05:26:08;11.50;77.30
78733;DHT22;68056;52.530;5.454;2023-03-13T05:28:34;11.60;77.20
78733;DHT22;68056;52.530;5.454;2023-03-13T05:30:59;11.70;77.10
78733;DHT22;68056;52.530;5.454;2023-03-13T05:33:25;11.70;77.00
78733;DHT22;68056;52.530;5.454;2023-03-13T05:35:50;11.70;76.90
78733;DHT22;68056;52.530;5.454;2023-03-13T05:38:16;11.70;76.80
78733;DHT22;68056;52.530;5.454;2023-03-13T05:40:42;11.70;76.70
78733;DHT22;68056;52.530;5.454;2023-03-13T05:43:08;11.80;76.60
78733;DHT22;68056;52.530;5.454;2023-03-13T05:45:33;11.80;76.50
78733;DHT22;68056;52.530;5.454;2023-03-13T05:47:59;11.90;76.30
78733;DHT22;68056;52.530;5.454;2023-03-13T05:50:25;11.90;76.20
78733;DHT22;68056;52.530;5.454;2023-03-13T05:52:50;11.90;76.10
78733;DHT22;68056;52.530;5.454;2023-03-13T05:55:17;11.90;76.00
78733;DHT22;68056;52.530;5.454;2023-03-13T05:57:45;11.90;75.80
78733;DHT22;68056;52.530;5.454;2023-03-13T06:00:11;11.90;75.80
78733;DHT22;68056;52.530;5.454;2023-03-13T06:02:37;11.90;75.70
78733;DHT22;68056;52.530;5.454;2023-03-13T06:05:03;11.90;75.50
78733;DHT22;68056;52.530;5.454;2023-03-13T06:07:29;12.00;75.30
78733;DHT22;68056;52.530;5.454;2023-03-13T06:09:54;12.00;75.20
78733;DHT22;68056;52.530;5.454;2023-03-13T06:12:20;12.00;75.00
78733;DHT22;68056;52.530;5.454;2023-03-13T06:14:46;12.10;74.90
78733;DHT22;68056;52.530;5.454;2023-03-13T06:17:11;12.10;74.80
78733;DHT22;68056;52.530;5.454;2023-03-13T06:19:37;12.10;74.70
78733;DHT22;68056;52.530;5.454;2023-03-13T06:22:03;12.10;74.60
78733;DHT22;68056;52.530;5.454;2023-03-13T06:24:28;12.10;74.40
78733;DHT22;68056;52.530;5.454;2023-03-13T06:26:54;12.10;74.40
78733;DHT22;68056;52.530;5.454;2023-03-13T06:29:19;12.10;74.20
78733;DHT22;68056;52.530;5.454;2023-03-13T06:31:45;12.10;74.10
78733;DHT22;68056;52.530;5.454;2023-03-13T06:34:12;12.10;74.00
78733;DHT22;68056;52.530;5.454;2023-03-13T06:36:37;12.10;73.90
78733;DHT22;68056;52.530;5.454;2023-03-13T06:39:03;12.10;73.70
78733;DHT22;68056;52.530;5.454;2023-03-13T06:41:29;12.20;73.60
78733;DHT22;68056;52.530;5.454;2023-03-13T06:43:55;12.20;73.60
78733;DHT22;68056;52.530;5.454;2023-03-13T06:46:22;12.20;73.50
78733;DHT22;68056;52.530;5.454;2023-03-13T06:48:49;12.20;73.40
78733;DHT22;68056;52.530;5.454;2023-03-13T06:51:17;12.20;73.40
78733;DHT22;68056;52.530;5.454;2023-03-13T06:53:43;12.30;73.40
78733;DHT22;68056;52.530;5.454;2023-03-13T06:56:09;12.30;73.40
78733;DHT22;68056;52.530;5.454;2023-03-13T06:58:35;12.20;73.40
78733;DHT22;68056;52.530;5.454;2023-03-13T07:01:10;12.20;73.50
78733;DHT22;68056;52.530;5.454;2023-03-13T07:03:36;12.10;73.70
78733;DHT22;68056;52.530;5.454;2023-03-13T07:06:03;12.00;74.00
78733;DHT22;68056;52.530;5.454;2023-03-13T07:08:30;11.90;74.20
78733;DHT22;68056;52.530;5.454;2023-03-13T07:11:02;11.90;74.50
78733;DHT22;68056;52.530;5.454;2023-03-13T07:13:28;11.80;74.70
78733;DHT22;68056;52.530;5.454;2023-03-13T07:15:54;11.70;74.90
78733;DHT22;68056;52.530;5.454;2023-03-13T07:18:21;11.60;75.20
78733;DHT22;68056;52.530;5.454;2023-03-13T07:20:54;11.50;75.50
78733;DHT22;68056;52.530;5.454;2023-03-13T07:23:21;11.50;75.70
78733;DHT22;68056;52.530;5.454;2023-03-13T07:26:04;11.50;75.80
78733;DHT22;68056;52.530;5.454;2023-03-13T07:28:30;11.50;76.00
78733;DHT22;68056;52.530;5.454;2023-03-13T07:31:07;11.50;76.00
78733;DHT22;68056;52.530;5.454;2023-03-13T07:33:33;11.50;76.10
78733;DHT22;68056;52.530;5.454;2023-03-13T07:35:59;11.40;76.20
78733;DHT22;68056;52.530;5.454;2023-03-13T07:38:24;11.40;76.20
78733;DHT22;68056;52.530;5.454;2023-03-13T07:40:52;11.40;76.30
78733;DHT22;68056;52.530;5.454;2023-03-13T07:43:19;11.40;76.40
78733;DHT22;68056;52.530;5.454;2023-03-13T07:45:58;11.40;76.30
78733;DHT22;68056;52.530;5.454;2023-03-13T07:48:29;11.50;76.20
78733;DHT22;68056;52.530;5.454;2023-03-13T07:50:55;11.40;76.10
78733;DHT22;68056;52.530;5.454;2023-03-13T07:53:21;11.40;76.00
78733;DHT22;68056;52.530;5.454;2023-03-13T07:56:04;11.30;76.00
78733;DHT22;68056;52.530;5.454;2023-03-13T07:58:32;11.20;76.10
78733;DHT22;68056;52.530;5.454;2023-03-13T08:00:59;11.10;76.20
78733;DHT22;68056;52.530;5.454;2023-03-13T08:03:25;11.10;76.30
78733;DHT22;68056;52.530;5.454;2023-03-13T08:06:02;11.10;76.50
78733;DHT22;68056;52.530;5.454;2023-03-13T08:08:28;11.10;76.60
78733;DHT22;68056;52.530;5.454;2023-03-13T08:11:01;11.10;76.60
78733;DHT22;68056;52.530;5.454;2023-03-13T08:13:27;11.10;76.70
78733;DHT22;68056;52.530;5.454;2023-03-13T08:16:10;11.20;76.60
78733;DHT22;68056;52.530;5.454;2023-03-13T08:18:38;11.20;76.50
78733;DHT22;68056;52.530;5.454;2023-03-13T08:21:24;11.30;76.60
78733;DHT22;68056;52.530;5.454;2023-03-13T08:23:55;11.60;76.50
78733;DHT22;68056;52.530;5.454;2023-03-13T08:26:23;12.00;76.30
78733;DHT22;68056;52.530;5.454;2023-03-13T08:28:53;12.30;75.40
78733;DHT22;68056;52.530;5.454;2023-03-13T08:31:28;12.50;74.80
78733;DHT22;68056;52.530;5.454;2023-03-13T08:33:54;12.40;74.60
78733;DHT22;68056;52.530;5.454;2023-03-13T08:36:21;12.30;74.60
78733;DHT22;68056;52.530;5.454;2023-03-13T08:38:48;12.10;74.60
78733;DHT22;68056;52.530;5.454;2023-03-13T08:41:17;12.10;74.70
78733;DHT22;68056;52.530;5.454;2023-03-13T08:43:43;12.10;74.80
78733;DHT22;68056;52.530;5.454;2023-03-13T08:46:09;12.10;74.70
78733;DHT22;68056;52.530;5.454;2023-03-13T08:48:34;12.10;74.60
78733;DHT22;68056;52.530;5.454;2023-03-13T08:53:33;12.00;74.70
78733;DHT22;68056;52.530;5.454;2023-03-13T08:55:59;12.00;74.70
78733;DHT22;68056;52.530;5.454;2023-03-13T08:58:24;12.00;74.60
78733;DHT22;68056;52.530;5.454;2023-03-13T09:00:50;12.00;74.50
78733;DHT22;68056;52.530;5.454;2023-03-13T09:03:16;11.90;74.50
78733;DHT22;68056;52.530;5.454;2023-03-13T09:05:42;11.90;74.60
78733;DHT22;68056;52.530;5.454;2023-03-13T09:08:08;11.90;74.60
78733;DHT22;68056;52.530;5.454;2023-03-13T09:10:34;11.90;74.50
78733;DHT22;68056;52.530;5.454;2023-03-13T09:13:00;12.00;74.20
78733;DHT22;68056;52.530;5.454;2023-03-13T09:15:26;12.00;73.80
78733;DHT22;68056;52.530;5.454;2023-03-13T09:17:52;12.10;73.20
78733;DHT22;68056;52.530;5.454;2023-03-13T09:20:17;12.20;72.70
78733;DHT22;68056;52.530;5.454;2023-03-13T09:22:44;12.20;72.00
78733;DHT22;68056;52.530;5.454;2023-03-13T09:25:10;12.30;71.80
78733;DHT22;68056;52.530;5.454;2023-03-13T09:27:36;12.60;71.30
78733;DHT22;68056;52.530;5.454;2023-03-13T09:30:01;13.00;70.60
78733;DHT22;68056;52.530;5.454;2023-03-13T09:32:27;13.30;69.90
78733;DHT22;68056;52.530;5.454;2023-03-13T09:34:53;13.70;69.10
78733;DHT22;68056;52.530;5.454;2023-03-13T09:37:18;13.90;68.30
78733;DHT22;68056;52.530;5.454;2023-03-13T09:39:44;13.90;67.80
78733;DHT22;68056;52.530;5.454;2023-03-13T09:42:21;14.00;67.20
78733;DHT22;68056;52.530;5.454;2023-03-13T09:44:58;14.10;66.50
78733;DHT22;68056;52.530;5.454;2023-03-13T09:47:57;14.00;65.80
78733;DHT22;68056;52.530;5.454;2023-03-13T09:50:31;14.00;65.30
78733;DHT22;68056;52.530;5.454;2023-03-13T09:53:03;14.00;65.00
78733;DHT22;68056;52.530;5.454;2023-03-13T09:55:32;13.90;64.70
78733;DHT22;68056;52.530;5.454;2023-03-13T09:58:03;13.70;64.70
78733;DHT22;68056;52.530;5.454;2023-03-13T10:00:36;13.60;64.70
78733;DHT22;68056;52.530;5.454;2023-03-13T10:03:22;13.60;64.80
78733;DHT22;68056;52.530;5.454;2023-03-13T10:05:54;13.60;64.90
78733;DHT22;68056;52.530;5.454;2023-03-13T10:08:23;13.60;64.50
78733;DHT22;68056;52.530;5.454;2023-03-13T10:13:49;13.50;64.60
78733;DHT22;68056;52.530;5.454;2023-03-13T10:18:52;13.50;64.70
78733;DHT22;68056;52.530;5.454;2023-03-13T10:21:22;13.60;64.80
78733;DHT22;68056;52.530;5.454;2023-03-13T10:24:22;13.60;64.90
78733;DHT22;68056;52.530;5.454;2023-03-13T10:26:51;13.60;65.30
78733;DHT22;68056;52.530;5.454;2023-03-13T10:29:21;13.70;65.50
78733;DHT22;68056;52.530;5.454;2023-03-13T10:32:06;13.90;65.50
78733;DHT22;68056;52.530;5.454;2023-03-13T10:34:55;14.00;65.50
78733;DHT22;68056;52.530;5.454;2023-03-13T10:37:29;14.10;65.50
78733;DHT22;68056;52.530;5.454;2023-03-13T10:40:21;14.20;65.40
78733;DHT22;68056;52.530;5.454;2023-03-13T10:42:48;14.40;65.40
78733;DHT22;68056;52.530;5.454;2023-03-13T10:45:21;14.60;65.20
78733;DHT22;68056;52.530;5.454;2023-03-13T10:47:55;14.70;65.00
78733;DHT22;68056;52.530;5.454;2023-03-13T10:50:23;14.70;65.00
78733;DHT22;68056;52.530;5.454;2023-03-13T10:52:49;14.80;64.60
78733;DHT22;68056;52.530;5.454;2023-03-13T10:55:23;14.80;64.70
78733;DHT22;68056;52.530;5.454;2023-03-13T10:58:03;15.00;64.70
78733;DHT22;68056;52.530;5.454;2023-03-13T11:00:37;15.40;64.20
78733;DHT22;68056;52.530;5.454;2023-03-13T11:03:25;15.50;63.10
78733;DHT22;68056;52.530;5.454;2023-03-13T11:05:56;15.30;62.90
78733;DHT22;68056;52.530;5.454;2023-03-13T11:08:25;15.30;62.10
78733;DHT22;68056;52.530;5.454;2023-03-13T11:10:54;15.30;61.40
78733;DHT22;68056;52.530;5.454;2023-03-13T11:13:38;15.30;61.10
78733;DHT22;68056;52.530;5.454;2023-03-13T11:16:27;15.30;60.70
78733;DHT22;68056;52.530;5.454;2023-03-13T11:21:59;15.60;60.70
78733;DHT22;68056;52.530;5.454;2023-03-13T11:24:38;15.60;60.00
78733;DHT22;68056;52.530;5.454;2023-03-13T11:32:25;15.60;60.50
78733;DHT22;68056;52.530;5.454;2023-03-13T11:34:57;15.90;60.20
78733;DHT22;68056;52.530;5.454;2023-03-13T11:37:27;16.20;59.80
78733;DHT22;68056;52.530;5.454;2023-03-13T11:40:15;16.30;59.40
78733;DHT22;68056;52.530;5.454;2023-03-13T11:43:03;16.00;59.30
78733;DHT22;68056;52.530;5.454;2023-03-13T12:02:36;15.40;59.20
78733;DHT22;68056;52.530;5.454;2023-03-13T12:05:13;15.40;58.70
78733;DHT22;68056;52.530;5.454;2023-03-13T12:08:01;15.30;58.90
78733;DHT22;68056;52.530;5.454;2023-03-13T12:10:37;15.20;59.00
78733;DHT22;68056;52.530;5.454;2023-03-13T12:13:06;15.00;59.00
78733;DHT22;68056;52.530;5.454;2023-03-13T12:15:47;15.00;59.20
78733;DHT22;68056;52.530;5.454;2023-03-13T12:18:37;15.20;59.00
78733;DHT22;68056;52.530;5.454;2023-03-13T12:26:26;15.60;58.00
78733;DHT22;68056;52.530;5.454;2023-03-13T12:29:14;15.80;57.10
78733;DHT22;68056;52.530;5.454;2023-03-13T12:32:01;15.90;56.70
78733;DHT22;68056;52.530;5.454;2023-03-13T12:37:44;16.20;56.10
78733;DHT22;68056;52.530;5.454;2023-03-13T12:40:26;16.10;56.00
78733;DHT22;68056;52.530;5.454;2023-03-13T12:45:36;15.60;56.60
78733;DHT22;68056;52.530;5.454;2023-03-13T12:50:58;15.40;57.00
78733;DHT22;68056;52.530;5.454;2023-03-13T12:56:23;15.20;57.30
78733;DHT22;68056;52.530;5.454;2023-03-13T12:58:53;15.00;57.70
78733;DHT22;68056;52.530;5.454;2023-03-13T13:06:17;14.90;57.90
78733;DHT22;68056;52.530;5.454;2023-03-13T13:14:01;14.30;59.30
78733;DHT22;68056;52.530;5.454;2023-03-13T13:16:27;14.20;59.60
78733;DHT22;68056;52.530;5.454;2023-03-13T13:18:54;14.30;59.80
78733;DHT22;68056;52.530;5.454;2023-03-13T13:21:24;14.50;59.70
78733;DHT22;68056;52.530;5.454;2023-03-13T13:23:51;14.80;59.20
78733;DHT22;68056;52.530;5.454;2023-03-13T13:29:00;15.20;58.50
78733;DHT22;68056;52.530;5.454;2023-03-13T13:36:57;15.50;56.60
78733;DHT22;68056;52.530;5.454;2023-03-13T13:47:30;15.30;56.40
78733;DHT22;68056;52.530;5.454;2023-03-13T13:49:56;15.10;56.50
78733;DHT22;68056;52.530;5.454;2023-03-13T13:52:39;14.80;56.80
78733;DHT22;68056;52.530;5.454;2023-03-13T13:55:28;14.60;57.20
78733;DHT22;68056;52.530;5.454;2023-03-13T14:01:01;14.40;57.30
78733;DHT22;68056;52.530;5.454;2023-03-13T14:03:32;14.30;57.00
78733;DHT22;68056;52.530;5.454;2023-03-13T14:06:03;14.30;57.20
78733;DHT22;68056;52.530;5.454;2023-03-13T14:08:40;14.30;57.10
78733;DHT22;68056;52.530;5.454;2023-03-13T14:11:29;14.30;57.10
78733;DHT22;68056;52.530;5.454;2023-03-13T14:14:17;14.20;57.30
78733;DHT22;68056;52.530;5.454;2023-03-13T14:16:45;14.20;57.30
78733;DHT22;68056;52.530;5.454;2023-03-13T14:19:28;14.10;57.60
78733;DHT22;68056;52.530;5.454;2023-03-13T14:22:02;14.10;57.60
78733;DHT22;68056;52.530;5.454;2023-03-13T14:24:28;14.00;57.80
78733;DHT22;68056;52.530;5.454;2023-03-13T14:26:53;14.00;57.80
78733;DHT22;68056;52.530;5.454;2023-03-13T14:29:19;13.90;58.00
78733;DHT22;68056;52.530;5.454;2023-03-13T14:31:52;13.90;58.20
78733;DHT22;68056;52.530;5.454;2023-03-13T14:34:18;13.90;58.30
78733;DHT22;68056;52.530;5.454;2023-03-13T14:36:55;13.90;58.20
78733;DHT22;68056;52.530;5.454;2023-03-13T14:39:42;14.00;58.20
78733;DHT22;68056;52.530;5.454;2023-03-13T14:42:15;14.20;57.70
78733;DHT22;68056;52.530;5.454;2023-03-13T14:44:42;14.30;57.20
78733;DHT22;68056;52.530;5.454;2023-03-13T14:47:24;14.40;56.90
78733;DHT22;68056;52.530;5.454;2023-03-13T14:49:59;14.60;56.70
78733;DHT22;68056;52.530;5.454;2023-03-13T14:52:27;14.70;56.60
78733;DHT22;68056;52.530;5.454;2023-03-13T14:54:59;14.70;56.40
78733;DHT22;68056;52.530;5.454;2023-03-13T14:57:28;14.60;56.40
78733;DHT22;68056;52.530;5.454;2023-03-13T15:00:23;14.60;56.40
78733;DHT22;68056;52.530;5.454;2023-03-13T15:02:50;14.60;56.50
78733;DHT22;68056;52.530;5.454;2023-03-13T15:05:30;14.60;56.50
78733;DHT22;68056;52.530;5.454;2023-03-13T15:07:56;14.50;56.70
78733;DHT22;68056;52.530;5.454;2023-03-13T15:10:35;14.40;56.80
78733;DHT22;68056;52.530;5.454;2023-03-13T15:13:25;14.40;57.10
78733;DHT22;68056;52.530;5.454;2023-03-13T15:15:52;14.40;57.10
78733;DHT22;68056;52.530;5.454;2023-03-13T15:18:28;14.50;56.90
78733;DHT22;68056;52.530;5.454;2023-03-13T15:21:15;14.40;56.60
78733;DHT22;68056;52.530;5.454;2023-03-13T15:24:02;14.40;56.50
78733;DHT22;68056;52.530;5.454;2023-03-13T15:26:35;14.40;56.50
78733;DHT22;68056;52.530;5.454;2023-03-13T15:29:00;14.30;56.40
78733;DHT22;68056;52.530;5.454;2023-03-13T15:31:27;14.20;56.30
78733;DHT22;68056;52.530;5.454;2023-03-13T15:33:55;14.20;56.40
78733;DHT22;68056;52.530;5.454;2023-03-13T15:36:22;14.10;56.40
78733;DHT22;68056;52.530;5.454;2023-03-13T15:38:47;14.00;56.60
78733;DHT22;68056;52.530;5.454;2023-03-13T15:41:14;13.80;56.70
78733;DHT22;68056;52.530;5.454;2023-03-13T15:43:39;13.70;57.00
78733;DHT22;68056;52.530;5.454;2023-03-13T15:46:17;13.60;57.20
78733;DHT22;68056;52.530;5.454;2023-03-13T15:48:43;13.50;57.40
78733;DHT22;68056;52.530;5.454;2023-03-13T15:51:14;13.50;57.60
78733;DHT22;68056;52.530;5.454;2023-03-13T15:53:41;13.50;57.60
78733;DHT22;68056;52.530;5.454;2023-03-13T15:56:18;13.50;57.60
78733;DHT22;68056;52.530;5.454;2023-03-13T15:58:45;13.50;57.60
78733;DHT22;68056;52.530;5.454;2023-03-13T16:01:12;13.30;57.70
78733;DHT22;68056;52.530;5.454;2023-03-13T16:03:39;13.30;57.80
78733;DHT22;68056;52.530;5.454;2023-03-13T16:06:14;13.20;58.00
78733;DHT22;68056;52.530;5.454;2023-03-13T16:08:40;13.10;58.10
78733;DHT22;68056;52.530;5.454;2023-03-13T16:11:06;13.10;58.20
78733;DHT22;68056;52.530;5.454;2023-03-13T16:13:32;13.00;58.30
78733;DHT22;68056;52.530;5.454;2023-03-13T16:15:57;12.90;58.40
78733;DHT22;68056;52.530;5.454;2023-03-13T16:18:23;12.90;58.50
78733;DHT22;68056;52.530;5.454;2023-03-13T16:20:50;12.80;58.50
78733;DHT22;68056;52.530;5.454;2023-03-13T16:23:16;12.70;58.60
78733;DHT22;68056;52.530;5.454;2023-03-13T16:25:43;12.70;58.60
78733;DHT22;68056;52.530;5.454;2023-03-13T16:28:11;12.70;58.70
78733;DHT22;68056;52.530;5.454;2023-03-13T16:30:39;12.60;58.80
78733;DHT22;68056;52.530;5.454;2023-03-13T16:33:12;12.50;58.90
78733;DHT22;68056;52.530;5.454;2023-03-13T16:35:38;12.50;59.00
78733;DHT22;68056;52.530;5.454;2023-03-13T16:38:04;12.50;59.00
78733;DHT22;68056;52.530;5.454;2023-03-13T16:40:33;12.50;58.90
78733;DHT22;68056;52.530;5.454;2023-03-13T16:42:59;12.40;59.00
78733;DHT22;68056;52.530;5.454;2023-03-13T16:45:25;12.50;59.10
78733;DHT22;68056;52.530;5.454;2023-03-13T16:47:51;12.50;59.10
78733;DHT22;68056;52.530;5.454;2023-03-13T16:50:36;12.50;59.20
78733;DHT22;68056;52.530;5.454;2023-03-13T16:53:02;12.30;59.20
78733;DHT22;68056;52.530;5.454;2023-03-13T16:55:28;12.30;59.30
78733;DHT22;68056;52.530;5.454;2023-03-13T16:57:56;12.20;59.40
78733;DHT22;68056;52.530;5.454;2023-03-13T17:00:23;12.20;59.60
78733;DHT22;68056;52.530;5.454;2023-03-13T17:02:49;12.10;59.60
78733;DHT22;68056;52.530;5.454;2023-03-13T17:05:15;12.00;59.70
78733;DHT22;68056;52.530;5.454;2023-03-13T17:07:45;11.90;59.90
78733;DHT22;68056;52.530;5.454;2023-03-13T17:10:32;11.90;60.10
78733;DHT22;68056;52.530;5.454;2023-03-13T17:12:58;11.70;60.20
78733;DHT22;68056;52.530;5.454;2023-03-13T17:15:25;11.70;60.40